createdAt,value
2022-10-15T00:00:42.212Z,14.30
2022-10-15T00:03:08.632Z,14.37
2022-10-15T00:05:39.647Z,14.37
2022-10-15T00:08:07.430Z,14.32
2022-10-15T00:10:34.354Z,14.30
2022-10-15T00:13:00.921Z,14.31
2022-10-15T00:15:27.805Z,14.27
2022-10-15T00:17:54.224Z,14.22
2022-10-15T00:20:20.599Z,14.23
2022-10-15T00:22:46.953Z,14.31
2022-10-15T00:25:13.519Z,14.39
2022-10-15T00:27:40.737Z,14.37
2022-10-15T00:30:07.684Z,14.39
2022-10-15T00:32:34.329Z,14.38
2022-10-15T00:35:02.238Z,14.43
2022-10-15T00:37:28.606Z,14.48
2022-10-15T00:39:55.090Z,14.27
2022-10-15T00:42:24.196Z,14.37
2022-10-15T00:44:57.273Z,14.35
2022-10-15T00:47:33.969Z,14.33
2022-10-15T00:50:09.548Z,14.39
2022-10-15T00:52:54.168Z,14.40
2022-10-15T00:55:36.895Z,14.35
2022-10-15T00:58:08.008Z,14.37
2022-10-15T01:00:35.595Z,14.39
2022-10-15T01:03:02.160Z,14.21
2022-10-15T01:05:28.695Z,14.30
2022-10-15T01:07:55.492Z,14.27
2022-10-15T01:10:26.830Z,14.24
2022-10-15T01:13:04.507Z,14.17
2022-10-15T01:15:57.199Z,14.19
2022-10-15T01:18:39.968Z,14.17
2022-10-15T01:21:23.756Z,14.13
2022-10-15T01:24:11.111Z,14.16
2022-10-15T01:27:06.368Z,14.19
2022-10-15T01:29:54.149Z,14.19
2022-10-15T01:32:27.857Z,14.03
2022-10-15T01:35:16.566Z,14.21
2022-10-15T01:38:01.353Z,14.21
2022-10-15T01:40:41.421Z,14.25
2022-10-15T01:43:15.716Z,14.08
2022-10-15T01:45:57.017Z,13.94
2022-10-15T01:48:27.723Z,14.08
2022-10-15T01:50:59.662Z,13.97
2022-10-15T01:53:28.243Z,13.99
2022-10-15T01:55:59.034Z,14.05
2022-10-15T01:58:27.794Z,14.02
2022-10-15T02:00:55.895Z,14.07
2022-10-15T02:03:22.533Z,14.10
2022-10-15T02:05:56.168Z,14.05
2022-10-15T02:08:31.283Z,14.10
2022-10-15T02:11:05.904Z,14.14
2022-10-15T02:13:53.915Z,14.20
2022-10-15T02:16:41.694Z,14.17
2022-10-15T02:19:30.705Z,14.17
2022-10-15T02:22:06.288Z,14.08
2022-10-15T02:24:43.613Z,14.07
2022-10-15T02:27:12.124Z,14.06
2022-10-15T02:29:41.606Z,14.01
2022-10-15T02:32:11.763Z,14.08
2022-10-15T02:34:39.558Z,14.11
2022-10-15T02:37:07.893Z,14.12
2022-10-15T02:39:34.340Z,14.10
2022-10-15T02:42:02.141Z,14.19
2022-10-15T02:44:28.929Z,14.22
2022-10-15T02:46:57.830Z,14.23
2022-10-15T02:49:24.216Z,14.21
2022-10-15T02:51:51.150Z,14.27
2022-10-15T02:54:17.951Z,14.16
2022-10-15T02:56:45.064Z,14.14
2022-10-15T02:59:11.917Z,14.25
2022-10-15T03:01:38.528Z,14.33
2022-10-15T03:04:05.152Z,14.32
2022-10-15T03:06:31.839Z,14.19
2022-10-15T03:08:58.572Z,14.34
2022-10-15T03:11:25.628Z,14.14
2022-10-15T03:13:52.056Z,14.15
2022-10-15T03:16:19.086Z,14.23
2022-10-15T03:18:45.895Z,14.33
2022-10-15T03:21:12.611Z,14.18
2022-10-15T03:23:39.776Z,14.27
2022-10-15T03:26:06.509Z,14.16
2022-10-15T03:28:32.963Z,14.17
2022-10-15T03:31:00.060Z,14.20
2022-10-15T03:33:26.899Z,14.20
2022-10-15T03:35:53.269Z,14.20
2022-10-15T03:38:19.715Z,14.10
2022-10-15T03:40:46.435Z,14.19
2022-10-15T03:43:12.825Z,14.05
2022-10-15T03:45:39.404Z,14.15
2022-10-15T03:48:06.230Z,14.09
2022-10-15T03:50:33.083Z,14.02
2022-10-15T03:52:59.602Z,13.90
2022-10-15T03:55:25.988Z,13.89
2022-10-15T03:57:52.354Z,13.79
2022-10-15T04:00:18.909Z,13.95
2022-10-15T04:02:45.273Z,13.98
2022-10-15T04:05:11.651Z,13.98
2022-10-15T04:07:38.017Z,14.03
2022-10-15T04:10:04.604Z,13.88
2022-10-15T04:12:31.083Z,13.93
2022-10-15T04:14:57.465Z,13.91
2022-10-15T04:17:23.864Z,13.98
2022-10-15T04:19:50.238Z,13.99
2022-10-15T04:22:16.772Z,13.84
2022-10-15T04:24:43.279Z,13.95
2022-10-15T04:27:09.794Z,13.88
2022-10-15T04:29:36.226Z,13.95
2022-10-15T04:32:02.638Z,13.97
2022-10-15T04:34:29.057Z,13.87
2022-10-15T04:36:55.851Z,14.06
2022-10-15T04:39:22.254Z,14.01
2022-10-15T04:41:48.882Z,13.99
2022-10-15T04:44:15.704Z,14.02
2022-10-15T04:46:42.250Z,13.93
2022-10-15T04:49:08.837Z,13.93
2022-10-15T04:51:35.309Z,14.02
2022-10-15T04:54:01.814Z,14.03
2022-10-15T04:56:28.429Z,14.07
2022-10-15T04:58:54.796Z,14.04
2022-10-15T05:01:21.674Z,13.97
2022-10-15T05:03:49.240Z,13.96
2022-10-15T05:06:21.226Z,14.03
2022-10-15T05:08:48.289Z,14.03
2022-10-15T05:11:24.142Z,14.04
2022-10-15T05:13:51.387Z,14.13
2022-10-15T05:16:20.424Z,14.11
2022-10-15T05:18:49.438Z,14.10
2022-10-15T05:21:17.481Z,14.10
2022-10-15T05:23:44.984Z,14.11
2022-10-15T05:26:16.975Z,13.97
2022-10-15T05:28:43.748Z,13.98
2022-10-15T05:31:18.784Z,14.20
2022-10-15T05:33:46.563Z,14.13
2022-10-15T05:36:18.825Z,14.12
2022-10-15T05:38:50.411Z,14.10
2022-10-15T05:41:16.955Z,14.02
2022-10-15T05:43:46.116Z,14.08
2022-10-15T05:46:12.750Z,14.07
2022-10-15T05:48:39.385Z,14.02
2022-10-15T05:51:08.667Z,14.01
2022-10-15T05:53:35.171Z,14.02
2022-10-15T05:56:01.575Z,14.05
2022-10-15T05:58:32.107Z,14.06
2022-10-15T06:01:04.722Z,14.05
2022-10-15T06:03:31.227Z,14.09
2022-10-15T06:05:57.634Z,13.84
2022-10-15T06:08:24.017Z,14.03
2022-10-15T06:10:50.407Z,14.01
2022-10-15T06:13:17.145Z,13.96
2022-10-15T06:15:45.527Z,13.99
2022-10-15T06:18:15.771Z,14.03
2022-10-15T06:20:43.736Z,14.09
2022-10-15T06:23:11.856Z,14.16
2022-10-15T06:25:38.518Z,14.13
2022-10-15T06:28:06.584Z,14.19
2022-10-15T06:30:33.273Z,14.20
2022-10-15T06:32:59.719Z,14.12
2022-10-15T06:35:27.032Z,14.30
2022-10-15T06:37:53.497Z,14.39
2022-10-15T06:40:19.933Z,14.42
2022-10-15T06:42:46.301Z,14.31
2022-10-15T06:45:14.873Z,14.38
2022-10-15T06:47:43.347Z,14.46
2022-10-15T06:50:10.052Z,14.55
2022-10-15T06:52:36.484Z,14.44
2022-10-15T06:55:03.342Z,14.37
2022-10-15T06:57:30.147Z,14.46
2022-10-15T06:59:56.558Z,14.38
2022-10-15T07:02:24.830Z,14.43
2022-10-15T07:04:51.739Z,14.45
2022-10-15T07:07:18.199Z,14.58
2022-10-15T07:09:46.795Z,14.48
2022-10-15T07:12:13.562Z,14.46
2022-10-15T07:14:42.306Z,14.61
2022-10-15T07:17:09.103Z,14.53
2022-10-15T07:19:35.668Z,14.68
2022-10-15T07:22:02.187Z,14.61
2022-10-15T07:24:28.767Z,14.72
2022-10-15T07:26:55.126Z,14.67
2022-10-15T07:29:21.493Z,14.69
2022-10-15T07:31:47.974Z,14.67
2022-10-15T07:34:14.523Z,14.73
2022-10-15T07:36:41.014Z,14.59
2022-10-15T07:39:08.537Z,14.67
2022-10-15T07:41:34.915Z,14.76
2022-10-15T07:44:01.544Z,14.76
2022-10-15T07:46:28.001Z,14.97
2022-10-15T07:48:54.551Z,14.78
2022-10-15T07:51:20.959Z,14.97
2022-10-15T07:53:47.504Z,15.01
2022-10-15T07:56:15.961Z,14.88
2022-10-15T07:58:43.227Z,14.94
2022-10-15T08:01:11.009Z,14.84
2022-10-15T08:03:38.083Z,14.98
2022-10-15T08:06:07.054Z,15.19
2022-10-15T08:08:35.223Z,15.13
2022-10-15T08:11:10.083Z,15.31
2022-10-15T08:13:38.914Z,15.26
2022-10-15T08:16:05.424Z,15.37
2022-10-15T08:18:31.874Z,15.38
2022-10-15T08:21:00.299Z,15.34
2022-10-15T08:23:26.940Z,15.09
2022-10-15T08:25:53.343Z,15.02
2022-10-15T08:28:19.942Z,15.07
2022-10-15T08:30:46.540Z,15.13
2022-10-15T08:33:12.963Z,15.04
2022-10-15T08:35:43.690Z,15.43
2022-10-15T08:38:14.752Z,15.27
2022-10-15T08:40:48.662Z,15.24
2022-10-15T08:43:26.428Z,15.32
2022-10-15T08:45:58.655Z,15.33
2022-10-15T08:48:31.497Z,15.44
2022-10-15T08:51:08.184Z,15.37
2022-10-15T08:53:45.680Z,15.33
2022-10-15T08:56:26.973Z,15.46
2022-10-15T08:59:12.248Z,15.42
2022-10-15T09:01:53.851Z,15.51
2022-10-15T09:04:37.773Z,15.62
2022-10-15T09:07:16.544Z,15.46
2022-10-15T09:09:51.915Z,15.62
2022-10-15T09:12:59.927Z,15.68
2022-10-15T09:15:30.823Z,15.48
2022-10-15T09:17:57.352Z,15.15
2022-10-15T09:20:30.878Z,15.34
2022-10-15T09:22:57.583Z,15.36
2022-10-15T09:25:26.553Z,15.51
2022-10-15T09:27:56.425Z,15.64
2022-10-15T09:30:37.181Z,15.95
2022-10-15T09:33:22.342Z,16.10
2022-10-15T09:36:08.114Z,16.20
2022-10-15T09:39:08.511Z,17.08
2022-10-15T09:41:51.555Z,16.59
2022-10-15T09:44:21.115Z,17.12
2022-10-15T09:46:49.870Z,17.13
2022-10-15T09:49:23.070Z,16.68
2022-10-15T09:52:17.900Z,16.72
2022-10-15T09:55:18.248Z,16.78
2022-10-15T09:57:48.963Z,16.43
2022-10-15T10:00:15.415Z,17.00
2022-10-15T10:02:41.931Z,17.00
2022-10-15T10:05:41.932Z,16.81
2022-10-15T10:08:24.223Z,16.90
2022-10-15T10:10:56.144Z,17.14
2022-10-15T10:13:26.167Z,17.17
2022-10-15T10:15:58.359Z,16.57
2022-10-15T10:18:26.128Z,17.11
2022-10-15T10:20:54.517Z,16.75
2022-10-15T10:23:23.718Z,16.78
2022-10-15T10:25:50.668Z,16.53
2022-10-15T10:28:26.213Z,16.33
2022-10-15T10:31:00.123Z,16.64
2022-10-15T10:33:32.729Z,17.10
2022-10-15T10:36:00.476Z,17.58
2022-10-15T10:38:31.597Z,18.09
2022-10-15T10:41:07.449Z,18.80
2022-10-15T10:43:39.776Z,19.69
2022-10-15T10:46:15.127Z,20.31
2022-10-15T10:48:53.079Z,19.84
2022-10-15T10:51:21.595Z,19.45
2022-10-15T10:53:54.197Z,19.40
2022-10-15T10:56:24.538Z,20.19
2022-10-15T10:59:17.011Z,21.04
2022-10-15T11:01:43.430Z,19.89
2022-10-15T11:04:17.021Z,19.31
2022-10-15T11:06:51.767Z,19.31
2022-10-15T11:09:42.726Z,20.21
2022-10-15T11:12:27.807Z,21.08
2022-10-15T11:15:06.435Z,20.05
2022-10-15T11:17:54.450Z,19.74
2022-10-15T11:20:56.466Z,18.85
2022-10-15T11:23:41.021Z,20.26
2022-10-15T11:26:37.539Z,19.59
2022-10-15T11:29:37.608Z,19.57
2022-10-15T11:32:42.417Z,19.05
2022-10-15T11:35:48.205Z,20.16
2022-10-15T11:38:18.107Z,22.16
2022-10-15T11:41:03.255Z,21.03
2022-10-15T11:43:37.620Z,21.33
2022-10-15T11:46:20.102Z,22.28
2022-10-15T11:49:21.611Z,21.18
2022-10-15T11:52:07.305Z,21.42
2022-10-15T11:54:45.186Z,21.49
2022-10-15T11:57:22.876Z,20.60
2022-10-15T11:59:56.528Z,20.28
2022-10-15T12:02:37.557Z,19.54
2022-10-15T12:05:09.234Z,20.00
2022-10-15T12:07:42.147Z,20.14
2022-10-15T12:10:45.842Z,20.46
2022-10-15T12:13:17.501Z,20.62
2022-10-15T12:16:13.411Z,20.69
2022-10-15T12:18:50.168Z,20.46
2022-10-15T12:21:32.739Z,19.93
2022-10-15T12:23:59.714Z,19.67
2022-10-15T12:26:29.577Z,19.34
2022-10-15T12:28:59.606Z,19.52
2022-10-15T12:31:46.098Z,18.95
2022-10-15T12:34:28.932Z,18.95
2022-10-15T12:37:05.149Z,19.05
2022-10-15T12:39:52.083Z,19.16
2022-10-15T12:42:33.339Z,19.55
2022-10-15T12:45:03.442Z,19.06
2022-10-15T12:47:56.614Z,19.25
2022-10-15T12:50:28.299Z,19.07
2022-10-15T12:52:59.114Z,18.93
2022-10-15T12:55:29.721Z,18.32
2022-10-15T12:57:58.792Z,18.62
2022-10-15T13:00:33.251Z,18.44
2022-10-15T13:03:32.753Z,18.48
2022-10-15T13:06:23.849Z,18.30
2022-10-15T13:09:11.974Z,18.17
2022-10-15T13:11:44.768Z,18.30
2022-10-15T13:14:21.042Z,18.36
2022-10-15T13:16:50.487Z,18.11
2022-10-15T13:19:23.608Z,18.07
2022-10-15T13:21:59.488Z,18.33
2022-10-15T13:24:28.612Z,18.42
2022-10-15T13:27:00.021Z,18.48
2022-10-15T13:29:28.040Z,18.51
2022-10-15T13:31:56.739Z,18.29
2022-10-15T13:34:29.736Z,18.38
2022-10-15T13:36:59.532Z,18.23
2022-10-15T13:42:18.513Z,17.89
2022-10-15T13:45:04.414Z,17.75
2022-10-15T13:47:35.623Z,17.80
2022-10-15T13:50:28.966Z,18.12
2022-10-15T13:53:01.747Z,18.08
2022-10-15T13:55:30.528Z,18.31
2022-10-15T13:58:18.955Z,17.99
2022-10-15T14:01:23.129Z,18.08
2022-10-15T14:03:57.932Z,18.36
2022-10-15T14:06:25.556Z,18.23
2022-10-15T14:09:00.797Z,18.23
2022-10-15T14:11:29.529Z,18.06
2022-10-15T14:13:57.956Z,18.05
2022-10-15T14:16:39.811Z,18.06
2022-10-15T14:19:06.680Z,17.91
2022-10-15T14:21:34.088Z,18.17
2022-10-15T14:24:19.169Z,17.91
2022-10-15T14:26:46.736Z,17.96
2022-10-15T14:29:22.153Z,18.03
2022-10-15T14:31:49.396Z,17.83
2022-10-15T14:34:33.899Z,18.14
2022-10-15T14:37:01.335Z,18.05
2022-10-15T14:39:34.301Z,18.02
2022-10-15T14:42:25.768Z,17.96
2022-10-15T14:44:52.294Z,17.93
2022-10-15T14:47:25.681Z,17.73
2022-10-15T14:49:56.737Z,17.94
2022-10-15T14:52:23.696Z,17.62
2022-10-15T14:55:09.473Z,17.84
2022-10-15T14:57:40.371Z,17.76
2022-10-15T15:00:31.539Z,17.73
2022-10-15T15:03:01.236Z,17.73
2022-10-15T15:05:28.991Z,17.76
2022-10-15T15:07:57.440Z,17.93
2022-10-15T15:10:25.954Z,17.98
2022-10-15T15:12:57.035Z,17.99
2022-10-15T15:15:24.908Z,18.12
2022-10-15T15:17:51.473Z,18.07
2022-10-15T15:20:21.329Z,18.07
2022-10-15T15:22:53.146Z,18.02
2022-10-15T15:25:33.824Z,17.89
2022-10-15T15:28:01.397Z,17.96
2022-10-15T15:30:30.325Z,18.03
2022-10-15T15:32:57.410Z,17.94
2022-10-15T15:35:33.657Z,17.92
2022-10-15T15:38:00.041Z,17.89
2022-10-15T15:40:26.945Z,17.89
2022-10-15T15:42:53.371Z,17.86
2022-10-15T15:45:25.882Z,17.92
2022-10-15T15:47:52.376Z,17.96
2022-10-15T15:50:21.356Z,17.86
2022-10-15T15:52:48.244Z,17.74
2022-10-15T15:55:14.633Z,17.78
2022-10-15T15:57:41.028Z,17.81
2022-10-15T16:00:09.741Z,17.88
2022-10-15T16:02:36.749Z,17.83
2022-10-15T16:05:04.435Z,17.76
2022-10-15T16:07:31.326Z,17.74
2022-10-15T16:09:58.030Z,17.89
2022-10-15T16:12:24.468Z,17.68
2022-10-15T16:14:51.087Z,17.83
2022-10-15T16:17:18.143Z,17.71
2022-10-15T16:19:44.525Z,17.47
2022-10-15T16:22:11.026Z,17.66
2022-10-15T16:24:37.461Z,17.61
2022-10-15T16:27:04.031Z,17.61
2022-10-15T16:29:30.411Z,17.62
2022-10-15T16:31:57.136Z,17.66
2022-10-15T16:34:24.959Z,17.60
2022-10-15T16:36:51.761Z,17.44
2022-10-15T16:39:18.513Z,17.47
2022-10-15T16:41:45.050Z,17.44
2022-10-15T16:44:11.600Z,17.34
2022-10-15T16:46:38.013Z,17.31
2022-10-15T16:49:04.755Z,17.28
2022-10-15T16:54:02.631Z,17.27
2022-10-15T16:56:30.415Z,17.18
2022-10-15T16:58:57.226Z,17.07
2022-10-15T17:01:26.883Z,17.07
2022-10-15T17:03:53.974Z,17.07
2022-10-15T17:06:27.950Z,17.12
2022-10-15T17:08:59.846Z,17.11
2022-10-15T17:11:34.958Z,17.07
2022-10-15T17:14:07.645Z,17.07
2022-10-15T17:16:38.296Z,17.08
2022-10-15T17:19:05.519Z,17.05
2022-10-15T17:21:32.257Z,17.09
2022-10-15T17:24:01.103Z,17.04
2022-10-15T17:26:30.073Z,16.93
2022-10-15T17:28:56.629Z,17.02
2022-10-15T17:31:25.802Z,17.01
2022-10-15T17:33:57.765Z,17.01
2022-10-15T17:36:25.877Z,16.96
2022-10-15T17:38:55.064Z,16.98
2022-10-15T17:41:23.211Z,16.97
2022-10-15T17:43:50.580Z,16.93
2022-10-15T17:46:19.884Z,16.78
2022-10-15T17:48:47.296Z,16.93
2022-10-15T17:51:19.861Z,16.90
2022-10-15T17:53:48.071Z,16.94
2022-10-15T17:56:17.971Z,16.93
2022-10-15T17:58:45.488Z,16.82
2022-10-15T18:01:28.156Z,16.94
2022-10-15T18:04:00.257Z,16.94
2022-10-15T18:06:27.894Z,16.89
2022-10-15T18:08:55.131Z,16.86
2022-10-15T18:11:30.693Z,16.91
2022-10-15T18:13:57.270Z,16.87
2022-10-15T18:16:24.431Z,16.84
2022-10-15T18:18:52.983Z,16.80
2022-10-15T18:21:20.514Z,16.69
2022-10-15T18:23:47.507Z,16.72
2022-10-15T18:26:21.801Z,16.71
2022-10-15T18:28:50.415Z,16.70
2022-10-15T18:31:17.956Z,16.54
2022-10-15T18:33:47.713Z,16.59
2022-10-15T18:36:21.187Z,16.65
2022-10-15T18:38:47.623Z,16.62
2022-10-15T18:41:24.165Z,16.68
2022-10-15T18:43:52.517Z,16.76
2022-10-15T18:46:19.665Z,16.72
2022-10-15T18:48:46.457Z,16.79
2022-10-15T18:51:12.934Z,16.67
2022-10-15T18:53:40.027Z,16.75
2022-10-15T18:56:07.658Z,16.75
2022-10-15T18:58:34.736Z,16.80
2022-10-15T19:01:10.471Z,16.78
2022-10-15T19:03:36.879Z,16.69
2022-10-15T19:06:03.396Z,16.72
2022-10-15T19:08:30.960Z,16.73
2022-10-15T19:11:06.331Z,16.65
2022-10-15T19:13:33.088Z,16.80
2022-10-15T19:16:03.630Z,16.78
2022-10-15T19:18:31.234Z,16.72
2022-10-15T19:20:57.732Z,16.72
2022-10-15T19:23:24.135Z,16.77
2022-10-15T19:25:50.508Z,16.80
2022-10-15T19:28:17.235Z,16.80
2022-10-15T19:30:44.798Z,16.79
2022-10-15T19:33:11.296Z,16.82
2022-10-15T19:35:39.994Z,16.81
2022-10-15T19:38:06.633Z,16.80
2022-10-15T19:40:37.997Z,16.79
2022-10-15T19:43:05.786Z,16.73
2022-10-15T19:45:40.294Z,16.78
2022-10-15T19:48:07.259Z,16.80
2022-10-15T19:50:37.100Z,16.77
2022-10-15T19:53:04.588Z,16.74
2022-10-15T19:55:31.031Z,16.73
2022-10-15T19:57:57.456Z,16.82
2022-10-15T20:00:24.311Z,16.76
2022-10-15T20:02:50.798Z,16.84
2022-10-15T20:05:17.439Z,16.90
2022-10-15T20:07:43.820Z,16.83
2022-10-15T20:10:11.885Z,16.84
2022-10-15T20:12:38.632Z,16.77
2022-10-15T20:15:05.719Z,16.75
2022-10-15T20:17:32.142Z,16.81
2022-10-15T20:19:58.574Z,16.84
2022-10-15T20:22:25.341Z,16.84
2022-10-15T20:24:51.915Z,16.80
2022-10-15T20:27:18.492Z,16.62
2022-10-15T20:29:44.919Z,16.70
2022-10-15T20:32:30.125Z,16.72
2022-10-15T20:35:00.446Z,16.68
2022-10-15T20:37:26.963Z,16.64
2022-10-15T20:39:53.429Z,16.62
2022-10-15T20:42:19.945Z,16.63
2022-10-15T20:44:46.362Z,16.62
2022-10-15T20:47:14.759Z,16.63
2022-10-15T20:49:45.398Z,16.64
2022-10-15T20:52:13.510Z,16.68
2022-10-15T20:54:39.881Z,16.66
2022-10-15T20:57:06.447Z,16.61
2022-10-15T20:59:33.282Z,16.59
2022-10-15T21:01:59.721Z,16.56
2022-10-15T21:04:26.106Z,16.55
2022-10-15T21:06:52.834Z,16.56
2022-10-15T21:09:19.300Z,16.48
2022-10-15T21:11:46.525Z,16.50
2022-10-15T21:14:14.095Z,16.46
2022-10-15T21:16:41.264Z,16.42
2022-10-15T21:19:07.715Z,16.40
2022-10-15T21:21:34.277Z,16.30
2022-10-15T21:24:00.802Z,16.26
2022-10-15T21:26:27.256Z,16.36
2022-10-15T21:28:55.368Z,16.28
2022-10-15T21:31:22.275Z,16.29
2022-10-15T21:33:48.733Z,16.29
2022-10-15T21:36:24.434Z,16.28
2022-10-15T21:38:56.168Z,16.31
2022-10-15T21:41:24.058Z,16.32
2022-10-15T21:46:22.412Z,16.17
2022-10-15T21:48:49.147Z,16.22
2022-10-15T21:51:19.425Z,16.16
2022-10-15T21:53:46.465Z,16.26
2022-10-15T21:56:13.843Z,16.25
2022-10-15T21:58:41.311Z,15.92
2022-10-15T22:01:14.539Z,16.19
2022-10-15T22:03:44.607Z,16.17
2022-10-15T22:06:12.165Z,16.17
2022-10-15T22:08:38.756Z,16.09
2022-10-15T22:11:14.343Z,16.19
2022-10-15T22:13:45.346Z,16.09
2022-10-15T22:16:14.071Z,16.14
2022-10-15T22:18:41.351Z,16.09
2022-10-15T22:21:16.960Z,16.01
2022-10-15T22:23:44.761Z,16.07
2022-10-15T22:26:12.200Z,16.09
2022-10-15T22:28:39.128Z,16.03
2022-10-15T22:31:08.633Z,15.96
2022-10-15T22:33:35.130Z,16.03
2022-10-15T22:36:03.375Z,16.00
2022-10-15T22:38:29.917Z,15.97
2022-10-15T22:40:57.013Z,16.00
2022-10-15T22:43:24.151Z,15.91
2022-10-15T22:45:51.454Z,15.99
2022-10-15T22:48:17.883Z,15.94
2022-10-15T22:50:44.259Z,15.90
2022-10-15T22:53:10.774Z,15.80
2022-10-15T22:55:37.214Z,15.79
2022-10-15T22:58:03.975Z,15.79
2022-10-15T23:00:31.238Z,15.78
2022-10-15T23:02:57.652Z,15.80
2022-10-15T23:05:24.049Z,15.81
2022-10-15T23:07:50.551Z,15.75
2022-10-15T23:10:16.977Z,15.70
2022-10-15T23:12:43.371Z,15.73
2022-10-15T23:15:10.127Z,15.67
2022-10-15T23:17:36.498Z,15.64
2022-10-15T23:20:02.956Z,15.51
2022-10-15T23:22:29.315Z,15.47
2022-10-15T23:24:55.674Z,15.63
2022-10-15T23:27:22.085Z,15.62
2022-10-15T23:29:56.855Z,15.49
2022-10-15T23:32:33.989Z,15.49
2022-10-15T23:35:00.403Z,15.60
2022-10-15T23:37:27.359Z,15.53
2022-10-15T23:39:54.064Z,15.59
2022-10-15T23:42:20.491Z,15.47
2022-10-15T23:44:46.997Z,15.59
2022-10-15T23:47:13.434Z,15.42
2022-10-15T23:49:40.294Z,15.53
2022-10-15T23:52:06.848Z,15.39
2022-10-15T23:54:33.236Z,15.49
2022-10-15T23:57:01.340Z,15.47
2022-10-15T23:59:27.871Z,15.33
